Time,TemperatureF,DewpointF,PressureIn,WindDirection,WindDirectionDegrees,WindSpeedMPH,WindSpeedGustMPH,Humidity,HourlyPrecipIn,Conditions,Clouds,dailyrainin,SolarRadiationWatts/m^2,SoftwareType,DateUTC
2013-06-08 00:00:00,65.7,62.7,29.98,East,85,7.0,15.0,90,0.00,OVC,SCT,0.00,0.0,WeatherDisplay:10.37,2013-06-08 10:00:00,
2013-06-08 00:10:00,65.6,62.6,29.98,East,92,8.0,13.0,90,0.00,OVC,SCT,0.00,0.0,WeatherDisplay:10.37,2013-06-08 10:10:00,
2013-06-08 00:20:00,65.9,62.6,29.97,East,88,13.0,21.0,89,0.00,BKN,SCT,0.00,0.0,WeatherDisplay:10.37,2013-06-08 10:20:00,
2013-06-08 00:30:00,66.1,62.4,29.96,East,82,10.0,18.0,88,0.00,BKN,SCT,0.00,0.0,WeatherDisplay:10.37,2013-06-08 10:30:00,
2013-06-08 00:40:00,66.1,62.5,29.96,East,84,7.0,16.0,88,0.00,BKN,SCT,0.00,0.0,WeatherDisplay:10.37,2013-06-08 10:40:00,
2013-06-08 00:50:00,66.1,62.8,29.96,East,82,10.0,20.0,89,0.00,BKN,SCT,0.00,0.0,WeatherDisplay:10.37,2013-06-08 10:50:00,
2013-06-08 01:00:00,66.1,62.4,29.95,East,83,6.0,16.0,88,0.00,BKN,SCT,0.00,0.0,WeatherDisplay:10.37,2013-06-08 11:00:00,
2013-06-08 01:10:00,66.1,62.4,29.95,East,91,5.0,14.0,88,0.00,BKN,SCT,0.00,0.0,WeatherDisplay:10.37,2013-06-08 11:10:00,
2013-06-08 01:20:00,66.0,62.7,29.95,ENE,74,6.0,15.0,89,0.00,OVC,SCT,0.00,0.0,WeatherDisplay:10.37,2013-06-08 11:20:00,
2013-06-08 01:30:00,65.7,62.0,29.95,East,81,8.0,20.0,88,0.00,OVC,SCT,0.00,0.0,WeatherDisplay:10.37,2013-06-08 11:30:00,
2013-06-08 01:40:00,65.4,61.4,29.95,East,95,10.0,17.0,87,0.00,OVC,SCT,0.00,0.0,WeatherDisplay:10.37,2013-06-08 11:40:00,
2013-06-08 01:50:00,65.3,61.0,29.95,East,88,8.0,15.0,86,0.00,OVC,SCT,0.00,0.0,WeatherDisplay:10.37,2013-06-08 11:50:00,
2013-06-08 02:00:00,65.3,60.3,29.95,East,86,9.0,14.0,84,0.00,OVC,SCT,0.00,0.0,WeatherDisplay:10.37,2013-06-08 12:00:00,
2013-06-08 02:10:00,65.7,61.1,29.94,East,80,7.0,14.0,85,0.00,OVC,SCT,0.00,0.0,WeatherDisplay:10.37,2013-06-08 12:10:00,
2013-06-08 02:20:00,65.8,61.5,29.94,ENE,76,9.0,22.0,86,0.00,OVC,SCT,0.00,0.0,WeatherDisplay:10.37,2013-06-08 12:20:00,
2013-06-08 02:30:00,66.0,62.0,29.94,ENE,74,8.0,17.0,87,0.00,OVC,SCT,0.00,0.0,WeatherDisplay:10.37,2013-06-08 12:30:00,
2013-06-08 02:40:00,66.1,62.2,29.94,ENE,73,7.0,15.0,87,0.00,OVC,SCT,0.00,0.0,WeatherDisplay:10.37,2013-06-08 12:40:00,
2013-06-08 02:50:00,66.2,62.5,29.93,ENE,62,5.0,18.0,88,0.00,OVC,SCT,0.00,0.0,WeatherDisplay:10.37,2013-06-08 12:50:00,
2013-06-08 03:00:00,66.0,62.3,29.92,NE,50,10.0,17.0,88,0.00,OVC,SCT,0.00,0.0,WeatherDisplay:10.37,2013-06-08 13:00:00,
2013-06-08 03:10:00,66.1,62.1,29.93,ENE,71,9.0,15.0,87,0.00,OVC,SCT,0.00,0.0,WeatherDisplay:10.37,2013-06-08 13:10:00,
2013-06-08 03:20:00,65.9,62.2,29.93,East,82,6.0,14.0,88,0.00,BKN,SCT,0.00,0.0,WeatherDisplay:10.37,2013-06-08 13:20:00,
2013-06-08 03:30:00,65.7,61.4,29.93,East,87,6.0,12.0,86,0.00,BKN,SCT,0.00,0.0,WeatherDisplay:10.37,2013-06-08 13:30:00,
2013-06-08 03:40:00,65.8,61.5,29.92,East,92,6.0,14.0,86,0.00,BKN,SCT,0.00,0.0,WeatherDisplay:10.37,2013-06-08 13:40:00,
2013-06-08 03:50:00,66.2,61.6,29.91,East,84,8.0,17.0,85,0.00,BKN,SCT,0.00,0.0,WeatherDisplay:10.37,2013-06-08 13:50:00,
2013-06-08 04:00:00,66.1,61.2,29.91,East,93,8.0,14.0,84,0.00,BKN,SCT,0.00,0.0,WeatherDisplay:10.37,2013-06-08 14:00:00,
2013-06-08 04:10:00,66.0,60.7,29.91,East,85,8.0,13.0,83,0.00,BKN,SCT,0.00,0.0,WeatherDisplay:10.37,2013-06-08 14:10:00,
2013-06-08 04:20:00,65.9,60.6,29.91,East,81,8.0,15.0,83,0.00,BKN,SCT,0.00,0.0,WeatherDisplay:10.37,2013-06-08 14:20:00,
2013-06-08 04:30:00,65.9,61.0,29.92,ENE,78,12.0,16.0,84,0.00,BKN,SCT,0.00,0.0,WeatherDisplay:10.37,2013-06-08 14:30:00,
2013-06-08 04:40:00,66.2,61.2,29.92,East,85,8.0,16.0,84,0.00,OVC,SCT,0.00,0.0,WeatherDisplay:10.37,2013-06-08 14:40:00,
2013-06-08 04:50:00,66.2,61.3,29.92,East,81,10.0,17.0,84,0.00,OVC,SCT,0.00,0.0,WeatherDisplay:10.37,2013-06-08 14:50:00,
2013-06-08 05:00:00,66.5,61.5,29.92,East,85,10.0,18.0,84,0.00,OVC,SCT,0.00,0.0,WeatherDisplay:10.37,2013-06-08 15:00:00,
2013-06-08 05:10:00,66.4,60.7,29.92,East,93,6.0,15.0,82,0.00,SCT,SCT,0.00,0.0,WeatherDisplay:10.37,2013-06-08 15:10:00,
2013-06-08 05:20:00,66.3,59.9,29.93,East,88,6.0,15.0,80,0.00,SCT,SCT,0.00,0.0,WeatherDisplay:10.37,2013-06-08 15:20:00,
2013-06-08 05:30:00,66.5,59.8,29.93,East,89,8.0,12.0,79,0.00,SCT,SCT,0.00,0.0,WeatherDisplay:10.37,2013-06-08 15:30:00,
2013-06-08 05:40:00,66.5,59.8,29.93,East,86,5.0,12.0,79,0.00,SCT,SCT,0.00,0.0,WeatherDisplay:10.37,2013-06-08 15:40:00,
2013-06-08 05:50:00,66.6,60.2,29.93,ENE,62,6.0,14.0,80,0.00,SCT,SCT,0.00,0.1,WeatherDisplay:10.37,2013-06-08 15:50:00,
2013-06-08 06:00:00,66.6,61.3,29.94,ENE,78,8.0,20.0,83,0.00,SCT,SCT,0.00,0.7,WeatherDisplay:10.37,2013-06-08 16:00:00,
2013-06-08 06:10:00,66.5,61.8,29.95,East,98,10.0,15.0,85,0.00,SCT,SCT,0.00,1.2,WeatherDisplay:10.37,2013-06-08 16:10:00,
2013-06-08 06:20:00,66.0,61.4,29.95,East,88,9.0,16.0,85,0.00,SCT,SCT,0.00,3.0,WeatherDisplay:10.37,2013-06-08 16:20:00,
2013-06-08 06:30:00,66.0,61.4,29.95,East,89,9.0,16.0,85,0.00,SCT,SCT,0.00,4.8,WeatherDisplay:10.37,2013-06-08 16:30:00,
2013-06-08 06:40:00,65.9,61.6,29.95,East,86,10.0,21.0,86,0.00,CLR,SCT,0.00,6.4,WeatherDisplay:10.37,2013-06-08 16:40:00,
2013-06-08 06:50:00,65.8,61.2,29.95,East,83,9.0,22.0,85,0.00,CLR,SCT,0.00,17.1,WeatherDisplay:10.37,2013-06-08 16:50:00,
2013-06-08 07:00:00,66.4,60.7,29.95,East,86,7.0,16.0,82,0.00,CLR,SCT,0.00,10.4,WeatherDisplay:10.37,2013-06-08 17:00:00,
2013-06-08 07:10:00,66.7,61.0,29.96,East,90,7.0,16.0,82,0.00,SCT,SCT,0.00,16.7,WeatherDisplay:10.37,2013-06-08 17:10:00,
2013-06-08 07:20:00,67.0,61.0,29.97,East,91,9.0,23.0,81,0.00,SCT,SCT,0.00,18.7,WeatherDisplay:10.37,2013-06-08 17:20:00,
2013-06-08 07:30:00,67.5,60.8,29.96,East,79,7.0,17.0,79,0.00,SCT,SCT,0.00,92.4,WeatherDisplay:10.37,2013-06-08 17:30:00,
2013-06-08 07:40:00,68.4,61.0,29.96,East,82,7.0,13.0,77,0.00,SCT,SCT,0.00,96.8,WeatherDisplay:10.37,2013-06-08 17:40:00,
2013-06-08 07:50:00,69.4,61.2,29.96,East,85,3.0,13.0,75,0.00,SCT,SCT,0.00,142.4,WeatherDisplay:10.37,2013-06-08 17:50:00,
2013-06-08 08:00:00,70.7,62.0,29.96,ENE,75,9.0,15.0,74,0.00,SCT,SCT,0.00,165.1,WeatherDisplay:10.37,2013-06-08 18:00:00,
2013-06-08 08:10:00,71.3,62.6,29.95,East,90,5.0,20.0,74,0.00,SCT,SCT,0.00,179.1,WeatherDisplay:10.37,2013-06-08 18:10:00,
2013-06-08 08:20:00,70.9,62.2,29.96,East,87,9.0,16.0,74,0.00,SCT,SCT,0.00,65.8,WeatherDisplay:10.37,2013-06-08 18:20:00,
2013-06-08 08:30:00,69.6,62.4,29.96,East,85,10.0,19.0,78,0.00,SCT,SCT,0.00,74.8,WeatherDisplay:10.37,2013-06-08 18:30:00,
2013-06-08 08:40:00,69.1,62.0,29.96,East,93,9.0,21.0,78,0.00,SCT,SCT,0.00,150.7,WeatherDisplay:10.37,2013-06-08 18:40:00,
2013-06-08 08:50:00,70.5,62.2,29.96,East,83,10.0,20.0,75,0.00,SCT,SCT,0.00,275.2,WeatherDisplay:10.37,2013-06-08 18:50:00,
2013-06-08 09:00:00,72.4,62.9,29.96,East,88,12.0,20.0,72,0.00,SCT,SCT,0.00,265.1,WeatherDisplay:10.37,2013-06-08 19:00:00,
2013-06-08 09:10:00,73.4,63.8,29.96,East,92,8.0,18.0,72,0.00,SCT,SCT,0.00,240.9,WeatherDisplay:10.37,2013-06-08 19:10:00,
2013-06-08 09:20:00,74.1,64.1,29.95,ENE,76,9.0,17.0,71,0.00,SCT,SCT,0.00,326.4,WeatherDisplay:10.37,2013-06-08 19:20:00,
2013-06-08 09:30:00,74.4,65.2,29.96,ENE,71,9.0,18.0,73,0.00,SCT,SCT,0.00,301.6,WeatherDisplay:10.37,2013-06-08 19:30:00,
2013-06-08 09:40:00,74.5,65.3,29.96,ENE,68,9.0,18.0,73,0.00,SCT,SCT,0.00,379.1,WeatherDisplay:10.37,2013-06-08 19:40:00,
2013-06-08 09:50:00,74.5,64.1,29.96,ENE,70,8.0,20.0,70,0.00,SCT,SCT,0.00,248.2,WeatherDisplay:10.37,2013-06-08 19:50:00,
2013-06-08 10:00:00,74.3,64.7,29.96,East,89,6.0,21.0,72,0.00,SCT,SCT,0.00,379.8,WeatherDisplay:10.37,2013-06-08 20:00:00,
2013-06-08 10:10:00,75.2,65.1,29.96,East,88,10.0,20.0,71,0.00,SCT,SCT,0.00,468.8,WeatherDisplay:10.37,2013-06-08 20:10:00,
2013-06-08 10:20:00,75.2,65.1,29.95,East,86,9.0,19.0,71,0.00,FEW,SCT,0.00,497.7,WeatherDisplay:10.37,2013-06-08 20:20:00,
2013-06-08 10:30:00,75.5,64.2,29.94,East,79,10.0,20.0,68,0.00,FEW,SCT,0.00,489.0,WeatherDisplay:10.37,2013-06-08 20:30:00,
2013-06-08 10:40:00,76.5,64.3,29.94,East,85,10.0,23.0,66,0.00,FEW,SCT,0.00,536.0,WeatherDisplay:10.37,2013-06-08 20:40:00,
2013-06-08 10:50:00,77.3,65.4,29.94,ENE,71,12.0,25.0,67,0.00,FEW,SCT,0.00,571.7,WeatherDisplay:10.37,2013-06-08 20:50:00,
2013-06-08 11:00:00,77.6,66.2,29.94,ENE,75,9.0,20.0,68,0.00,FEW,SCT,0.00,547.1,WeatherDisplay:10.37,2013-06-08 21:00:00,
2013-06-08 11:10:00,77.7,64.1,29.95,ENE,63,8.0,21.0,63,0.00,FEW,SCT,0.00,363.1,WeatherDisplay:10.37,2013-06-08 21:10:00,
2013-06-08 11:20:00,76.8,65.8,29.94,ENE,69,12.0,29.0,69,0.00,SCT,SCT,0.00,356.7,WeatherDisplay:10.37,2013-06-08 21:20:00,
2013-06-08 11:30:00,76.6,66.5,29.94,ENE,62,10.0,29.0,71,0.00,SCT,SCT,0.00,355.0,WeatherDisplay:10.37,2013-06-08 21:30:00,
2013-06-08 11:40:00,76.7,64.9,29.94,ENE,73,12.0,21.0,67,0.00,SCT,SCT,0.00,407.8,WeatherDisplay:10.37,2013-06-08 21:40:00,
2013-06-08 11:50:00,75.8,65.3,29.95,ENE,69,10.0,22.0,70,0.00,SCT,SCT,0.00,287.8,WeatherDisplay:10.37,2013-06-08 21:50:00,
2013-06-08 12:00:00,74.7,63.4,29.95,East,87,10.0,20.0,68,0.00,SCT,SCT,0.00,349.4,WeatherDisplay:10.37,2013-06-08 22:00:00,
2013-06-08 12:10:00,74.7,65.5,29.95,East,79,8.0,17.0,73,0.00,SCT,SCT,0.00,241.1,WeatherDisplay:10.37,2013-06-08 22:10:00,
2013-06-08 12:20:00,75.0,66.1,29.95,ENE,63,7.0,14.0,74,0.00,SCT,SCT,0.00,249.6,WeatherDisplay:10.37,2013-06-08 22:20:00,
2013-06-08 12:30:00,74.9,66.4,29.95,ENE,76,7.0,17.0,75,0.00,SCT,SCT,0.00,294.6,WeatherDisplay:10.37,2013-06-08 22:30:00,
2013-06-08 12:40:00,74.6,65.0,29.95,East,86,9.0,17.0,72,0.00,SCT,SCT,0.00,347.1,WeatherDisplay:10.37,2013-06-08 22:40:00,
2013-06-08 12:50:00,75.4,65.7,29.94,ENE,70,10.0,18.0,72,0.00,SCT,SCT,0.00,336.0,WeatherDisplay:10.37,2013-06-08 22:50:00,
2013-06-08 13:00:00,76.5,66.0,29.93,East,85,10.0,17.0,70,0.00,SCT,SCT,0.00,407.2,WeatherDisplay:10.37,2013-06-08 23:00:00,
2013-06-08 13:10:00,77.5,65.7,29.93,East,86,9.0,20.0,67,0.00,SCT,SCT,0.00,527.6,WeatherDisplay:10.37,2013-06-08 23:10:00,
2013-06-08 13:20:00,78.1,66.7,29.92,East,84,10.0,16.0,68,0.00,SCT,SCT,0.00,566.1,WeatherDisplay:10.37,2013-06-08 23:20:00,
2013-06-08 13:30:00,78.9,67.0,29.92,ENE,72,12.0,17.0,67,0.00,SCT,SCT,0.00,580.5,WeatherDisplay:10.37,2013-06-08 23:30:00,
2013-06-08 13:40:00,79.1,66.3,29.92,East,81,13.0,20.0,65,0.00,SCT,SCT,0.00,545.8,WeatherDisplay:10.37,2013-06-08 23:40:00,
2013-06-08 13:50:00,79.2,66.0,29.92,East,86,14.0,20.0,64,0.00,SCT,SCT,0.00,583.2,WeatherDisplay:10.37,2013-06-08 23:50:00,
2013-06-08 14:00:00,79.4,67.0,29.92,ENE,78,9.0,17.0,66,0.00,SCT,SCT,0.00,518.1,WeatherDisplay:10.37,2013-06-09 00:00:00,
2013-06-08 14:10:00,79.3,66.1,29.91,East,93,10.0,20.0,64,0.00,SCT,SCT,0.00,566.4,WeatherDisplay:10.37,2013-06-09 00:10:00,
2013-06-08 14:20:00,79.0,67.1,29.91,East,87,13.0,21.0,67,0.00,SCT,SCT,0.00,469.2,WeatherDisplay:10.37,2013-06-09 00:20:00,
2013-06-08 14:30:00,79.1,67.2,29.91,East,83,14.0,25.0,67,0.00,SCT,SCT,0.00,504.2,WeatherDisplay:10.37,2013-06-09 00:30:00,
2013-06-08 14:40:00,78.4,67.4,29.91,ENE,70,10.0,25.0,69,0.00,SCT,SCT,0.00,314.6,WeatherDisplay:10.37,2013-06-09 00:40:00,
2013-06-08 14:50:00,76.9,66.3,29.91,East,82,10.0,18.0,70,0.00,SCT,SCT,0.00,298.4,WeatherDisplay:10.37,2013-06-09 00:50:00,
2013-06-08 15:00:00,76.9,66.4,29.91,East,82,12.0,20.0,70,0.00,SCT,SCT,0.00,389.7,WeatherDisplay:10.37,2013-06-09 01:00:00,
2013-06-08 15:10:00,77.2,65.8,29.91,East,93,9.0,20.0,68,0.00,SCT,SCT,0.00,480.4,WeatherDisplay:10.37,2013-06-09 01:10:00,
2013-06-08 15:20:00,77.7,64.5,29.91,East,83,9.0,20.0,64,0.00,SCT,SCT,0.00,293.1,WeatherDisplay:10.37,2013-06-09 01:20:00,
2013-06-08 15:30:00,77.0,65.2,29.91,East,85,12.0,20.0,67,0.00,SCT,SCT,0.00,352.6,WeatherDisplay:10.37,2013-06-09 01:30:00,
2013-06-08 15:40:00,76.3,63.2,29.91,East,84,10.0,20.0,64,0.00,SCT,SCT,0.00,154.6,WeatherDisplay:10.37,2013-06-09 01:40:00,
2013-06-08 15:50:00,74.8,63.5,29.91,East,88,13.0,22.0,68,0.00,SCT,SCT,0.00,129.3,WeatherDisplay:10.37,2013-06-09 01:50:00,
2013-06-08 16:00:00,73.7,63.3,29.91,East,96,10.0,23.0,70,0.00,SCT,SCT,0.00,103.4,WeatherDisplay:10.37,2013-06-09 02:00:00,
2013-06-08 16:10:00,73.0,63.0,29.91,East,96,10.0,20.0,71,0.00,SCT,SCT,0.00,86.1,WeatherDisplay:10.37,2013-06-09 02:10:00,
2013-06-08 16:20:00,72.9,62.1,29.91,East,88,13.0,20.0,69,0.00,SCT,SCT,0.00,72.2,WeatherDisplay:10.37,2013-06-09 02:20:00,
2013-06-08 16:30:00,72.9,61.7,29.91,East,94,10.0,17.0,68,0.00,SCT,SCT,0.00,63.2,WeatherDisplay:10.37,2013-06-09 02:30:00,
2013-06-08 16:40:00,73.0,62.2,29.91,East,82,8.0,16.0,69,0.00,SCT,SCT,0.00,50.8,WeatherDisplay:10.37,2013-06-09 02:40:00,
2013-06-08 16:50:00,73.2,63.6,29.91,East,80,7.0,17.0,72,0.00,SCT,SCT,0.00,44.8,WeatherDisplay:10.37,2013-06-09 02:50:00,
2013-06-08 17:00:00,73.0,63.9,29.91,East,89,8.0,18.0,73,0.00,SCT,SCT,0.00,124.4,WeatherDisplay:10.37,2013-06-09 03:00:00,
2013-06-08 17:10:00,73.2,64.0,29.91,East,93,5.0,18.0,73,0.00,SCT,SCT,0.00,36.2,WeatherDisplay:10.37,2013-06-09 03:10:00,
2013-06-08 17:20:00,73.1,63.9,29.91,East,80,8.0,15.0,73,0.00,SCT,SCT,0.00,20.5,WeatherDisplay:10.37,2013-06-09 03:20:00,
2013-06-08 17:30:00,72.9,64.5,29.91,East,81,8.0,15.0,75,0.00,SCT,SCT,0.00,24.7,WeatherDisplay:10.37,2013-06-09 03:30:00,
2013-06-08 17:40:00,72.5,64.1,29.92,East,84,8.0,15.0,75,0.00,SCT,SCT,0.00,24.0,WeatherDisplay:10.37,2013-06-09 03:40:00,
2013-06-08 17:50:00,72.1,64.5,29.92,East,79,10.0,18.0,77,0.00,SCT,SCT,0.00,16.1,WeatherDisplay:10.37,2013-06-09 03:50:00,
2013-06-08 18:00:00,71.5,63.9,29.93,East,83,10.0,17.0,77,0.00,SCT,SCT,0.00,8.0,WeatherDisplay:10.37,2013-06-09 04:00:00,
2013-06-08 18:10:00,70.9,62.5,29.94,East,84,10.0,17.0,75,0.00,-RA,SCT,0.00,4.4,WeatherDisplay:10.37,2013-06-09 04:10:00,
2013-06-08 18:20:00,70.4,61.3,29.94,East,94,8.0,17.0,73,0.00,-RA,SCT,0.00,6.9,WeatherDisplay:10.37,2013-06-09 04:20:00,
2013-06-08 18:30:00,70.3,60.8,29.94,ESE,107,8.0,14.0,72,0.00,-RA,SCT,0.00,4.7,WeatherDisplay:10.37,2013-06-09 04:30:00,
2013-06-08 18:40:00,70.4,60.9,29.94,ESE,103,5.0,15.0,72,0.00,-RA,SCT,0.00,2.1,WeatherDisplay:10.37,2013-06-09 04:40:00,
2013-06-08 18:50:00,70.4,61.0,29.94,ESE,105,3.0,14.0,72,0.00,-RA,SCT,0.00,0.4,WeatherDisplay:10.37,2013-06-09 04:50:00,
2013-06-08 19:00:00,70.4,60.9,29.95,East,101,7.0,12.0,72,0.00,-RA,SCT,0.00,0.0,WeatherDisplay:10.37,2013-06-09 05:00:00,
2013-06-08 19:10:00,70.3,61.2,29.95,East,92,7.0,13.0,73,0.00,-RA,SCT,0.00,0.0,WeatherDisplay:10.37,2013-06-09 05:10:00,
2013-06-08 19:20:00,70.4,61.3,29.96,ESE,108,10.0,17.0,73,0.00,SCT,SCT,0.00,0.0,WeatherDisplay:10.37,2013-06-09 05:20:00,
2013-06-08 19:30:00,70.7,61.2,29.96,SE,126,5.0,16.0,72,0.00,SCT,SCT,0.00,0.0,WeatherDisplay:10.37,2013-06-09 05:30:00,
2013-06-08 19:40:00,70.5,61.4,29.96,East,83,3.0,7.0,73,0.00,SCT,SCT,0.00,0.0,WeatherDisplay:10.37,2013-06-09 05:40:00,
2013-06-08 19:50:00,70.1,60.7,29.96,East,88,7.0,12.0,72,0.00,SCT,SCT,0.00,0.0,WeatherDisplay:10.37,2013-06-09 05:50:00,
2013-06-08 20:00:00,69.8,60.8,29.96,East,87,6.0,10.0,73,0.00,SCT,SCT,0.00,0.0,WeatherDisplay:10.37,2013-06-09 06:00:00,
2013-06-08 20:10:00,69.5,60.8,29.96,East,88,7.0,13.0,74,0.00,SCT,SCT,0.00,0.0,WeatherDisplay:10.37,2013-06-09 06:10:00,
2013-06-08 20:20:00,69.3,60.6,29.97,ESE,103,7.0,12.0,74,0.00,SCT,SCT,0.00,0.0,WeatherDisplay:10.37,2013-06-09 06:20:00,
2013-06-08 20:30:00,69.2,60.6,29.97,East,87,5.0,12.0,74,0.00,SCT,SCT,0.00,0.0,WeatherDisplay:10.37,2013-06-09 06:30:00,
2013-06-08 20:40:00,68.9,61.0,29.97,East,96,10.0,22.0,76,0.00,SCT,SCT,0.00,0.0,WeatherDisplay:10.37,2013-06-09 06:40:00,
2013-06-08 20:50:00,68.8,60.6,29.97,East,86,8.0,17.0,75,0.00,SCT,SCT,0.00,0.0,WeatherDisplay:10.37,2013-06-09 06:50:00,
2013-06-08 21:00:00,68.8,60.6,29.98,East,100,7.0,15.0,75,0.00,SCT,SCT,0.00,0.0,WeatherDisplay:10.37,2013-06-09 07:00:00,
2013-06-08 21:10:00,68.7,60.1,29.98,ESE,111,6.0,12.0,74,0.00,SCT,SCT,0.00,0.0,WeatherDisplay:10.37,2013-06-09 07:10:00,
2013-06-08 21:20:00,68.7,60.0,29.98,East,84,5.0,12.0,74,0.00,SCT,SCT,0.00,0.0,WeatherDisplay:10.37,2013-06-09 07:20:00,
2013-06-08 21:30:00,68.4,60.5,29.97,ENE,70,9.0,14.0,76,0.00,SCT,SCT,0.00,0.0,WeatherDisplay:10.37,2013-06-09 07:30:00,
2013-06-08 21:40:00,68.5,60.3,29.98,East,89,6.0,15.0,75,0.00,SCT,SCT,0.00,0.0,WeatherDisplay:10.37,2013-06-09 07:40:00,
2013-06-08 21:50:00,68.5,60.6,29.99,ENE,74,9.0,16.0,76,0.00,SCT,SCT,0.00,0.0,WeatherDisplay:10.37,2013-06-09 07:50:00,
2013-06-08 22:00:00,68.1,61.0,29.98,ENE,65,8.0,15.0,78,0.00,SCT,SCT,0.00,0.0,WeatherDisplay:10.37,2013-06-09 08:00:00,
2013-06-08 22:10:00,68.1,61.3,30.00,ENE,78,8.0,15.0,79,0.00,SCT,SCT,0.00,0.0,WeatherDisplay:10.37,2013-06-09 08:10:00,
2013-06-08 22:20:00,68.2,61.8,29.99,ENE,74,12.0,18.0,80,0.00,CLR,SCT,0.00,0.0,WeatherDisplay:10.37,2013-06-09 08:20:00,
2013-06-08 22:30:00,68.2,61.4,29.99,East,97,8.0,18.0,79,0.00,CLR,SCT,0.00,0.0,WeatherDisplay:10.37,2013-06-09 08:30:00,
2013-06-08 22:40:00,68.4,60.9,29.99,East,86,7.0,14.0,77,0.00,CLR,SCT,0.00,0.0,WeatherDisplay:10.37,2013-06-09 08:40:00,
2013-06-08 22:50:00,68.2,61.4,30.00,East,87,7.0,14.0,79,0.00,CLR,SCT,0.00,0.0,WeatherDisplay:10.37,2013-06-09 08:50:00,
2013-06-08 23:00:00,68.0,61.2,29.99,East,90,7.0,17.0,79,0.00,CLR,SCT,0.00,0.0,WeatherDisplay:10.37,2013-06-09 09:00:00,
2013-06-08 23:10:00,68.1,60.2,29.99,East,86,7.0,15.0,76,0.00,OVC,SCT,0.00,0.0,WeatherDisplay:10.37,2013-06-09 09:10:00,
2013-06-08 23:20:00,68.2,60.3,29.99,East,83,8.0,15.0,76,0.00,OVC,SCT,0.00,0.0,WeatherDisplay:10.37,2013-06-09 09:20:00,
2013-06-08 23:30:00,68.0,60.6,29.98,East,82,9.0,16.0,77,0.00,OVC,SCT,0.00,0.0,WeatherDisplay:10.37,2013-06-09 09:30:00,
2013-06-08 23:40:00,68.3,60.4,29.98,East,81,6.0,15.0,76,0.00,OVC,SCT,0.00,0.0,WeatherDisplay:10.37,2013-06-09 09:40:00,
2013-06-08 23:50:00,68.0,61.2,29.98,ENE,75,7.0,15.0,79,0.00,OVC,SCT,0.00,0.0,WeatherDisplay:10.37,2013-06-09 09:50:00,